createdAt,value
2023-02-16T00:01:18.888Z,26.23
2023-02-16T00:03:22.566Z,26.42
2023-02-16T00:05:32.892Z,25.77
2023-02-16T00:07:34.332Z,25.33
2023-02-16T00:09:35.806Z,27.60
2023-02-16T00:11:56.168Z,26.48
2023-02-16T00:13:57.651Z,26.17
2023-02-16T00:15:59.171Z,27.42
2023-02-16T00:18:02.869Z,26.90
2023-02-16T00:20:14.081Z,27.15
2023-02-16T00:22:15.521Z,27.42
2023-02-16T00:24:17.114Z,25.73
2023-02-16T00:26:22.796Z,26.10
2023-02-16T00:28:24.245Z,29.88
2023-02-16T00:30:25.836Z,26.33
2023-02-16T00:32:27.419Z,26.67
2023-02-16T00:34:32.943Z,26.45
2023-02-16T00:36:34.418Z,25.13
2023-02-16T00:38:36.193Z,26.33
2023-02-16T00:40:37.945Z,27.17
2023-02-16T00:42:39.662Z,25.67
2023-02-16T00:45:01.830Z,27.25
2023-02-16T00:47:15.296Z,25.05
2023-02-16T00:49:18.937Z,26.85
2023-02-16T00:51:25.789Z,27.13
2023-02-16T00:53:27.808Z,27.05
2023-02-16T00:55:35.289Z,26.95
2023-02-16T00:57:51.152Z,26.58
2023-02-16T01:00:00.566Z,26.38
2023-02-16T01:02:02.110Z,26.15
2023-02-16T01:04:07.270Z,26.08
2023-02-16T01:06:29.146Z,26.73
2023-02-16T01:08:49.022Z,27.13
2023-02-16T01:11:10.469Z,27.00
2023-02-16T01:13:12.140Z,26.52
2023-02-16T01:15:15.182Z,27.13
2023-02-16T01:17:16.672Z,26.83
2023-02-16T01:19:18.208Z,27.63
2023-02-16T01:21:21.821Z,27.73
2023-02-16T01:23:23.309Z,26.27
2023-02-16T01:25:24.800Z,26.80
2023-02-16T01:27:26.261Z,26.65
2023-02-16T01:29:27.732Z,26.90
2023-02-16T01:31:29.315Z,26.08
2023-02-16T01:33:30.835Z,25.15
2023-02-16T01:35:34.227Z,26.08
2023-02-16T01:37:35.762Z,25.85
2023-02-16T01:39:37.231Z,25.92
2023-02-16T01:41:51.450Z,25.65
2023-02-16T01:43:59.662Z,26.05
2023-02-16T01:46:11.681Z,25.00
2023-02-16T01:48:21.955Z,24.92
2023-02-16T01:50:34.276Z,25.60
2023-02-16T01:52:43.200Z,25.58
2023-02-16T01:54:53.408Z,25.58
2023-02-16T01:57:04.648Z,26.30
2023-02-16T01:59:22.768Z,24.70
2023-02-16T02:01:37.534Z,25.25
2023-02-16T02:03:57.714Z,24.48
2023-02-16T02:05:59.293Z,25.27
2023-02-16T02:08:15.648Z,23.10
2023-02-16T02:10:24.024Z,24.05
2023-02-16T02:12:48.093Z,27.58
2023-02-16T02:14:49.601Z,29.55
2023-02-16T02:16:57.768Z,28.58
2023-02-16T02:18:59.241Z,25.25
2023-02-16T02:21:28.363Z,25.08
2023-02-16T02:24:07.379Z,25.30
2023-02-16T02:26:33.745Z,25.27
2023-02-16T02:28:55.090Z,25.10
2023-02-16T02:31:15.420Z,25.42
2023-02-16T02:33:22.744Z,26.23
2023-02-16T02:35:27.305Z,24.42
2023-02-16T02:37:59.819Z,25.40
2023-02-16T02:40:34.858Z,26.02
2023-02-16T02:42:49.461Z,23.88
2023-02-16T02:45:35.420Z,24.85
2023-02-16T02:47:39.180Z,23.80
2023-02-16T02:49:42.088Z,24.20
2023-02-16T02:51:43.613Z,23.00
2023-02-16T02:54:30.909Z,25.13
2023-02-16T02:56:51.255Z,25.15
2023-02-16T02:59:16.680Z,23.38
2023-02-16T03:01:19.157Z,26.05
2023-02-16T03:03:32.825Z,24.17
2023-02-16T03:05:36.985Z,23.80
2023-02-16T03:07:48.057Z,23.75
2023-02-16T03:10:09.510Z,25.08
2023-02-16T03:12:31.551Z,24.42
2023-02-16T03:14:46.620Z,23.08
2023-02-16T03:17:11.628Z,25.92
2023-02-16T03:19:35.547Z,26.88
2023-02-16T03:21:56.358Z,25.92
2023-02-16T03:24:18.704Z,27.05
2023-02-16T03:26:39.289Z,26.55
2023-02-16T03:29:02.160Z,25.27
2023-02-16T03:31:06.396Z,25.70
2023-02-16T03:33:08.170Z,24.77
2023-02-16T03:35:12.693Z,25.50
2023-02-16T03:37:14.699Z,24.98
2023-02-16T03:39:17.612Z,26.75
2023-02-16T03:41:19.070Z,24.27
2023-02-16T03:43:25.715Z,24.05
2023-02-16T03:45:28.638Z,25.55
2023-02-16T03:47:30.235Z,25.15
2023-02-16T03:49:31.722Z,25.40
2023-02-16T03:51:33.252Z,25.73
2023-02-16T03:53:34.751Z,26.15
2023-02-16T03:55:37.541Z,24.63
2023-02-16T03:57:39.627Z,24.70
2023-02-16T03:59:41.114Z,26.00
2023-02-16T04:01:42.587Z,23.85
2023-02-16T04:03:44.133Z,24.35
2023-02-16T04:05:45.796Z,25.13
2023-02-16T04:07:47.305Z,25.33
2023-02-16T04:09:48.794Z,23.75
2023-02-16T04:12:08.945Z,24.23
2023-02-16T04:14:10.452Z,24.85
2023-02-16T04:16:11.953Z,25.75
2023-02-16T04:18:13.500Z,24.25
2023-02-16T04:20:22.214Z,25.20
2023-02-16T04:22:23.678Z,25.90
2023-02-16T04:24:25.219Z,24.73
2023-02-16T04:26:26.674Z,23.42
2023-02-16T04:28:28.132Z,22.65
2023-02-16T04:30:31.385Z,24.52
2023-02-16T04:32:32.992Z,25.73
2023-02-16T04:34:34.479Z,23.67
2023-02-16T04:36:35.980Z,24.27
2023-02-16T04:38:37.464Z,25.15
2023-02-16T04:40:38.922Z,25.27
2023-02-16T04:42:44.910Z,24.77
2023-02-16T04:44:46.427Z,25.30
2023-02-16T04:46:47.878Z,25.85
2023-02-16T04:48:49.416Z,25.30
2023-02-16T04:50:51.097Z,25.63
2023-02-16T04:52:52.567Z,27.30
2023-02-16T04:54:54.113Z,24.98
2023-02-16T04:56:55.609Z,26.23
2023-02-16T04:58:57.062Z,25.33
2023-02-16T05:00:58.543Z,26.55
2023-02-16T05:03:00.090Z,26.67
2023-02-16T05:05:01.549Z,26.92
2023-02-16T05:07:03.085Z,26.88
2023-02-16T05:09:05.889Z,26.17
2023-02-16T05:11:26.059Z,28.23
2023-02-16T05:13:45.761Z,26.20
2023-02-16T05:15:47.388Z,26.67
2023-02-16T05:17:48.987Z,27.55
2023-02-16T05:19:52.799Z,28.92
2023-02-16T05:21:54.286Z,27.38
2023-02-16T05:23:55.742Z,28.13
2023-02-16T05:25:57.204Z,28.10
2023-02-16T05:27:58.741Z,28.60
2023-02-16T05:30:00.270Z,27.73
2023-02-16T05:32:04.578Z,28.98
2023-02-16T05:34:06.419Z,28.52
2023-02-16T05:36:08.180Z,30.58
2023-02-16T05:38:09.665Z,31.25
2023-02-16T05:40:11.746Z,32.67
2023-02-16T05:42:13.452Z,30.90
2023-02-16T05:44:14.915Z,31.48
2023-02-16T05:46:16.452Z,30.65
2023-02-16T05:48:18.276Z,32.35
2023-02-16T05:50:19.801Z,32.42
2023-02-16T05:52:21.380Z,31.73
2023-02-16T05:54:22.959Z,31.92
2023-02-16T05:56:25.400Z,30.48
2023-02-16T05:58:26.922Z,32.03
2023-02-16T06:00:28.630Z,31.25
2023-02-16T06:02:30.202Z,31.65
2023-02-16T06:04:32.579Z,30.05
2023-02-16T06:06:34.750Z,31.10
2023-02-16T06:08:37.307Z,30.23
2023-02-16T06:10:38.779Z,31.25
2023-02-16T06:12:40.235Z,32.40
2023-02-16T06:14:41.700Z,31.67
2023-02-16T06:16:45.548Z,30.95
2023-02-16T06:18:47.014Z,31.60
2023-02-16T06:20:48.994Z,32.38
2023-02-16T06:22:50.463Z,32.88
2023-02-16T06:24:52.107Z,30.30
2023-02-16T06:26:53.657Z,31.23
2023-02-16T06:28:55.630Z,30.65
2023-02-16T06:30:57.225Z,32.85
2023-02-16T06:32:58.953Z,31.55
2023-02-16T06:35:00.423Z,30.08
2023-02-16T06:37:01.902Z,31.38
2023-02-16T06:39:03.821Z,29.15
2023-02-16T06:41:06.157Z,30.92
2023-02-16T06:43:08.116Z,30.90
2023-02-16T06:45:10.171Z,30.45
2023-02-16T06:47:11.736Z,30.85
2023-02-16T06:49:18.556Z,30.88
2023-02-16T06:51:20.785Z,29.98
2023-02-16T06:53:22.327Z,28.20
2023-02-16T06:55:23.818Z,30.45
2023-02-16T06:57:25.330Z,30.65
2023-02-16T06:59:26.835Z,31.02
2023-02-16T07:01:28.795Z,30.85
2023-02-16T07:03:30.475Z,31.27
2023-02-16T07:05:32.195Z,30.75
2023-02-16T07:07:33.671Z,30.50
2023-02-16T07:09:38.157Z,29.88
2023-02-16T07:11:39.949Z,28.10
2023-02-16T07:13:41.507Z,29.35
2023-02-16T07:15:42.978Z,31.20
2023-02-16T07:17:44.477Z,29.05
2023-02-16T07:19:46.019Z,29.02
2023-02-16T07:21:47.537Z,28.60
2023-02-16T07:23:49.346Z,29.08
2023-02-16T07:25:50.841Z,28.48
2023-02-16T07:27:54.601Z,28.42
2023-02-16T07:29:56.106Z,28.95
2023-02-16T07:31:57.826Z,28.05
2023-02-16T07:33:59.414Z,28.67
2023-02-16T07:36:00.972Z,27.63
2023-02-16T07:38:02.757Z,27.58
2023-02-16T07:40:04.955Z,27.92
2023-02-16T07:42:06.462Z,27.88
2023-02-16T07:44:08.363Z,29.88
2023-02-16T07:46:10.761Z,28.73
2023-02-16T07:48:13.901Z,29.58
2023-02-16T07:50:16.498Z,27.98
2023-02-16T07:52:18.004Z,27.95
2023-02-16T07:54:19.455Z,28.85
2023-02-16T07:56:23.245Z,28.73
2023-02-16T07:58:27.602Z,28.23
2023-02-16T08:00:29.161Z,28.27
2023-02-16T08:02:30.739Z,28.70
2023-02-16T08:04:32.220Z,28.58
2023-02-16T08:06:37.055Z,28.30
2023-02-16T08:08:39.307Z,27.60
2023-02-16T08:10:40.790Z,29.88
2023-02-16T08:12:42.676Z,28.75
2023-02-16T08:14:46.611Z,27.70
2023-02-16T08:16:50.365Z,28.13
2023-02-16T08:18:56.309Z,28.50
2023-02-16T08:21:04.133Z,27.25
2023-02-16T08:23:07.800Z,29.60
2023-02-16T08:25:09.342Z,29.02
2023-02-16T08:27:10.884Z,27.40
2023-02-16T08:29:14.968Z,28.23
2023-02-16T08:31:19.131Z,27.48
2023-02-16T08:33:20.650Z,27.83
2023-02-16T08:35:22.618Z,26.58
2023-02-16T08:37:25.224Z,27.20
2023-02-16T08:39:30.718Z,27.20
2023-02-16T08:41:35.892Z,26.92
2023-02-16T08:43:37.392Z,26.98
2023-02-16T08:45:45.255Z,26.98
2023-02-16T08:47:46.851Z,27.33
2023-02-16T08:49:48.350Z,27.63
2023-02-16T08:51:52.961Z,26.02
2023-02-16T08:53:55.932Z,25.90
2023-02-16T08:55:58.666Z,26.48
2023-02-16T08:58:00.965Z,28.05
2023-02-16T09:00:21.049Z,26.83
2023-02-16T09:02:22.818Z,28.30
2023-02-16T09:04:25.606Z,27.83
2023-02-16T09:06:27.492Z,27.40
2023-02-16T09:08:29.314Z,27.90
2023-02-16T09:10:30.776Z,26.85
2023-02-16T09:12:33.698Z,24.95
2023-02-16T09:14:35.141Z,26.65
2023-02-16T09:16:39.406Z,28.17
2023-02-16T09:18:42.002Z,27.00
2023-02-16T09:20:46.993Z,26.00
2023-02-16T09:22:48.689Z,26.42
2023-02-16T09:24:50.159Z,27.30
2023-02-16T09:26:52.041Z,26.60
2023-02-16T09:28:53.900Z,26.58
2023-02-16T09:30:55.449Z,27.75
2023-02-16T09:32:59.247Z,27.20
2023-02-16T09:35:00.721Z,26.08
2023-02-16T09:37:02.224Z,27.13
2023-02-16T09:39:03.831Z,25.98
2023-02-16T09:41:20.546Z,26.55
2023-02-16T09:43:46.163Z,26.23
2023-02-16T09:45:51.706Z,25.38
2023-02-16T09:47:55.161Z,26.27
2023-02-16T09:50:03.858Z,26.40
2023-02-16T09:52:08.377Z,25.58
2023-02-16T09:54:31.819Z,28.02
2023-02-16T09:56:46.340Z,26.83
2023-02-16T09:59:24.556Z,25.90
2023-02-16T10:01:42.245Z,25.80
2023-02-16T10:03:49.279Z,26.70
2023-02-16T10:06:05.620Z,26.65
2023-02-16T10:08:25.107Z,27.00
2023-02-16T10:10:56.207Z,25.48
2023-02-16T10:13:16.968Z,26.23
2023-02-16T10:15:23.361Z,25.20
2023-02-16T10:17:44.791Z,25.88
2023-02-16T10:20:21.913Z,26.00
2023-02-16T10:22:38.535Z,27.65
2023-02-16T10:24:49.861Z,26.98
2023-02-16T10:26:59.663Z,27.75
2023-02-16T10:29:07.634Z,28.38
2023-02-16T10:31:36.339Z,27.70
2023-02-16T10:33:46.086Z,27.38
2023-02-16T10:35:49.950Z,27.38
2023-02-16T10:38:01.660Z,27.92
2023-02-16T10:40:23.155Z,27.17
2023-02-16T10:42:28.252Z,27.67
2023-02-16T10:44:40.247Z,26.85
2023-02-16T10:46:47.881Z,27.42
2023-02-16T10:48:54.322Z,28.05
2023-02-16T10:51:01.309Z,27.25
2023-02-16T10:53:09.643Z,27.77
2023-02-16T10:55:13.135Z,26.27
2023-02-16T10:57:27.042Z,26.55
2023-02-16T10:59:38.704Z,27.98
2023-02-16T11:01:45.068Z,27.98
2023-02-16T11:03:50.316Z,27.13
2023-02-16T11:05:53.411Z,28.38
2023-02-16T11:07:57.126Z,27.02
2023-02-16T11:10:02.728Z,28.48
2023-02-16T11:12:31.031Z,28.60
2023-02-16T11:14:32.860Z,26.65
2023-02-16T11:16:34.641Z,28.02
2023-02-16T11:18:41.629Z,26.83
2023-02-16T11:20:46.006Z,28.98
2023-02-16T11:22:47.503Z,27.88
2023-02-16T11:24:48.983Z,28.15
2023-02-16T11:27:02.166Z,27.88
2023-02-16T11:29:18.871Z,29.25
2023-02-16T11:31:39.729Z,28.88
2023-02-16T11:33:42.994Z,28.23
2023-02-16T11:35:45.724Z,27.75
2023-02-16T11:37:47.506Z,28.52
2023-02-16T11:39:56.664Z,27.05
2023-02-16T11:42:02.768Z,29.98
2023-02-16T11:44:04.745Z,27.77
2023-02-16T11:46:17.608Z,28.00
2023-02-16T11:48:28.552Z,28.08
2023-02-16T11:50:35.398Z,27.98
2023-02-16T11:52:37.067Z,28.90
2023-02-16T11:54:48.796Z,28.05
2023-02-16T11:57:05.239Z,27.85
2023-02-16T11:59:21.493Z,29.10
2023-02-16T12:01:58.522Z,29.27
2023-02-16T12:04:27.014Z,28.25
2023-02-16T12:07:07.672Z,27.45
2023-02-16T12:09:43.230Z,28.27
2023-02-16T12:12:40.467Z,28.30
2023-02-16T12:15:16.949Z,28.65
2023-02-16T12:17:21.673Z,30.70
2023-02-16T12:19:31.970Z,29.42
2023-02-16T12:21:53.639Z,29.80
2023-02-16T12:24:22.035Z,31.45
2023-02-16T12:26:38.323Z,31.60
2023-02-16T12:28:57.952Z,31.58
2023-02-16T12:31:11.612Z,30.88
2023-02-16T12:33:15.849Z,31.40
2023-02-16T12:35:55.109Z,30.95
2023-02-16T12:38:29.600Z,31.13
2023-02-16T12:40:58.305Z,31.20
2023-02-16T12:43:32.467Z,31.30
2023-02-16T12:45:37.450Z,30.80
2023-02-16T12:47:49.781Z,32.38
2023-02-16T12:50:14.009Z,32.08
2023-02-16T12:52:34.157Z,31.88
2023-02-16T12:54:43.233Z,30.60
2023-02-16T12:57:13.608Z,30.77
2023-02-16T12:59:29.845Z,30.65
2023-02-16T13:01:35.699Z,30.40
2023-02-16T13:03:50.140Z,31.00
2023-02-16T13:06:03.129Z,30.17
2023-02-16T13:08:42.878Z,31.27
2023-02-16T13:10:52.825Z,31.65
2023-02-16T13:13:00.757Z,31.20
2023-02-16T13:15:10.519Z,32.50
2023-02-16T13:17:17.875Z,30.88
2023-02-16T13:19:19.627Z,31.05
2023-02-16T13:21:51.184Z,32.13
2023-02-16T13:24:17.650Z,30.80
2023-02-16T13:26:28.306Z,30.70
2023-02-16T13:28:48.399Z,30.98
2023-02-16T13:30:50.038Z,31.15
2023-02-16T13:33:37.019Z,32.05
2023-02-16T13:36:22.978Z,31.30
2023-02-16T13:38:36.156Z,30.67
2023-02-16T13:40:56.304Z,30.90
2023-02-16T13:43:13.194Z,31.30
2023-02-16T13:45:24.421Z,32.03
2023-02-16T13:47:38.204Z,30.45
2023-02-16T13:49:42.936Z,29.60
2023-02-16T13:51:46.284Z,30.90
2023-02-16T13:54:02.251Z,31.63
2023-02-16T13:56:14.629Z,31.80
2023-02-16T13:58:17.032Z,32.25
2023-02-16T14:00:42.305Z,30.17
2023-02-16T14:02:57.471Z,31.08
2023-02-16T14:05:01.945Z,30.58
2023-02-16T14:07:03.417Z,30.63
2023-02-16T14:09:14.002Z,30.45
2023-02-16T14:11:15.511Z,30.92
2023-02-16T14:13:17.372Z,32.10
2023-02-16T14:15:20.888Z,31.40
2023-02-16T14:17:26.107Z,29.85
2023-02-16T14:19:27.604Z,30.63
2023-02-16T14:21:35.378Z,32.45
2023-02-16T14:23:36.933Z,29.88
2023-02-16T14:25:40.229Z,31.77
2023-02-16T14:27:47.341Z,31.40
2023-02-16T14:29:59.183Z,31.40
2023-02-16T14:32:24.223Z,33.00
2023-02-16T14:34:31.333Z,32.45
2023-02-16T14:36:33.383Z,32.08
2023-02-16T14:38:38.502Z,33.38
2023-02-16T14:40:55.473Z,33.13
2023-02-16T14:43:01.545Z,31.77
2023-02-16T14:45:31.888Z,32.13
2023-02-16T14:48:05.242Z,32.83
2023-02-16T14:50:37.276Z,33.47
2023-02-16T14:53:00.349Z,32.97
2023-02-16T14:55:12.084Z,32.38
2023-02-16T14:57:21.517Z,36.38
2023-02-16T14:59:54.650Z,33.60
2023-02-16T15:01:56.384Z,34.65
2023-02-16T15:03:59.640Z,34.10
2023-02-16T15:06:05.936Z,34.97
2023-02-16T15:08:37.105Z,33.20
2023-02-16T15:10:40.243Z,33.95
2023-02-16T15:12:43.979Z,35.00
2023-02-16T15:14:49.631Z,33.95
2023-02-16T15:16:53.307Z,34.95
2023-02-16T15:18:56.846Z,34.38
2023-02-16T15:20:59.128Z,36.45
2023-02-16T15:23:07.927Z,35.80
2023-02-16T15:27:23.601Z,31.90
2023-02-16T15:29:27.439Z,34.03
2023-02-16T15:31:33.119Z,32.85
2023-02-16T15:33:39.573Z,33.95
2023-02-16T15:35:43.430Z,32.97
2023-02-16T15:37:44.870Z,32.55
2023-02-16T15:40:03.027Z,32.47
2023-02-16T15:42:22.043Z,31.77
2023-02-16T15:44:36.752Z,30.30
2023-02-16T15:46:42.100Z,32.58
2023-02-16T15:48:43.634Z,32.53
2023-02-16T15:50:45.905Z,31.70
2023-02-16T15:52:47.926Z,31.15
2023-02-16T15:54:50.239Z,31.23
2023-02-16T15:56:54.075Z,30.60
2023-02-16T15:58:58.000Z,32.13
2023-02-16T16:01:00.490Z,31.70
2023-02-16T16:03:02.201Z,31.52
2023-02-16T16:05:07.304Z,32.05
2023-02-16T16:07:14.244Z,31.75
2023-02-16T16:09:33.054Z,32.30
2023-02-16T16:11:36.393Z,30.80
2023-02-16T16:13:38.485Z,32.95
2023-02-16T16:15:46.760Z,31.70
2023-02-16T16:17:49.507Z,32.17
2023-02-16T16:19:51.368Z,33.20
2023-02-16T16:21:55.194Z,31.10
2023-02-16T16:24:06.504Z,31.40
2023-02-16T16:26:19.201Z,30.67
2023-02-16T16:28:41.133Z,31.23
2023-02-16T16:30:45.220Z,32.10
2023-02-16T16:32:47.201Z,31.67
2023-02-16T16:34:49.960Z,33.60
2023-02-16T16:36:56.996Z,33.40
2023-02-16T16:39:16.433Z,32.03
2023-02-16T16:41:28.534Z,31.95
2023-02-16T16:43:32.574Z,32.35
2023-02-16T16:45:38.303Z,33.72
2023-02-16T16:47:41.266Z,31.77
2023-02-16T16:49:55.458Z,33.03
2023-02-16T16:51:57.066Z,31.92
2023-02-16T16:54:00.908Z,34.17
2023-02-16T16:56:02.486Z,34.15
2023-02-16T16:58:07.867Z,34.65
2023-02-16T17:00:10.937Z,35.00
2023-02-16T17:02:12.522Z,34.40
2023-02-16T17:04:14.079Z,34.03
2023-02-16T17:06:17.588Z,36.50
2023-02-16T17:08:19.241Z,36.03
2023-02-16T17:10:22.010Z,34.38
2023-02-16T17:12:24.782Z,34.40
2023-02-16T17:14:27.719Z,35.28
2023-02-16T17:16:36.558Z,34.80
2023-02-16T17:18:38.068Z,34.72
2023-02-16T17:20:39.525Z,33.80
2023-02-16T17:22:41.036Z,35.60
2023-02-16T17:24:42.690Z,35.25
2023-02-16T17:26:44.147Z,35.05
2023-02-16T17:28:45.674Z,35.33
2023-02-16T17:30:47.223Z,35.60
2023-02-16T17:32:48.818Z,34.85
2023-02-16T17:34:50.269Z,36.40
2023-02-16T17:36:52.841Z,37.35
2023-02-16T17:38:54.964Z,34.70
2023-02-16T17:40:57.739Z,34.75
2023-02-16T17:42:59.214Z,34.85
2023-02-16T17:45:00.660Z,35.83
2023-02-16T17:47:02.785Z,35.90
2023-02-16T17:49:04.258Z,34.55
2023-02-16T17:51:09.964Z,35.15
2023-02-16T17:53:14.013Z,35.42
2023-02-16T17:55:15.699Z,35.22
2023-02-16T17:57:17.921Z,36.22
2023-02-16T17:59:19.520Z,35.67
2023-02-16T18:01:21.184Z,35.35
2023-02-16T18:03:23.124Z,36.38
2023-02-16T18:05:24.623Z,36.40
2023-02-16T18:07:26.394Z,37.17
2023-02-16T18:09:27.858Z,35.63
2023-02-16T18:11:29.510Z,36.05
2023-02-16T18:13:31.583Z,34.65
2023-02-16T18:15:33.766Z,35.78
2023-02-16T18:17:35.267Z,35.22
2023-02-16T18:19:36.730Z,36.47
2023-02-16T18:21:38.190Z,34.83
2023-02-16T18:23:40.096Z,34.75
2023-02-16T18:25:43.958Z,34.15
2023-02-16T18:27:45.695Z,32.88
2023-02-16T18:29:47.273Z,33.65
2023-02-16T18:31:48.814Z,34.25
2023-02-16T18:33:50.657Z,33.42
2023-02-16T18:35:55.062Z,33.33
2023-02-16T18:37:56.524Z,33.15
2023-02-16T18:39:57.999Z,33.83
2023-02-16T18:41:59.477Z,34.03
2023-02-16T18:44:01.414Z,34.85
2023-02-16T18:46:08.012Z,33.10
2023-02-16T18:48:09.700Z,32.63
2023-02-16T18:50:12.440Z,33.67
2023-02-16T18:52:13.926Z,34.60
2023-02-16T18:54:15.475Z,33.75
2023-02-16T18:56:17.033Z,33.70
2023-02-16T18:58:18.688Z,33.28
2023-02-16T19:00:21.801Z,33.35
2023-02-16T19:02:23.252Z,33.35
2023-02-16T19:04:25.941Z,33.88
2023-02-16T19:06:27.965Z,33.50
2023-02-16T19:08:29.404Z,31.92
2023-02-16T19:10:31.337Z,32.25
2023-02-16T19:12:32.791Z,33.78
2023-02-16T19:14:34.384Z,32.97
2023-02-16T19:16:35.864Z,31.98
2023-02-16T19:18:37.319Z,33.05
2023-02-16T19:20:38.774Z,31.83
2023-02-16T19:22:40.380Z,32.60
2023-02-16T19:24:41.864Z,33.22
2023-02-16T19:26:43.352Z,32.70
2023-02-16T19:28:45.777Z,32.60
2023-02-16T19:30:49.254Z,31.83
2023-02-16T19:32:50.921Z,32.88
2023-02-16T19:34:52.436Z,34.20
2023-02-16T19:36:54.061Z,33.45
2023-02-16T19:38:55.704Z,35.53
2023-02-16T19:40:57.499Z,33.38
2023-02-16T19:42:58.956Z,32.72
2023-02-16T19:45:00.431Z,35.10
2023-02-16T19:47:03.186Z,35.33
2023-02-16T19:49:04.947Z,36.08
2023-02-16T19:51:07.830Z,35.95
2023-02-16T19:53:09.338Z,35.58
2023-02-16T19:55:11.620Z,36.10
2023-02-16T19:57:13.246Z,37.92
2023-02-16T19:59:15.378Z,35.40
2023-02-16T20:01:19.923Z,37.05
2023-02-16T20:03:21.398Z,36.40
2023-02-16T20:05:22.880Z,37.97
2023-02-16T20:07:24.338Z,38.28
2023-02-16T20:09:25.819Z,39.28
2023-02-16T20:11:28.670Z,39.72
2023-02-16T20:13:30.171Z,39.20
2023-02-16T20:15:31.782Z,40.67
2023-02-16T20:17:33.268Z,41.47
2023-02-16T20:19:34.716Z,41.70
2023-02-16T20:21:36.356Z,41.17
2023-02-16T20:23:38.798Z,40.42
2023-02-16T20:25:40.323Z,40.80
2023-02-16T20:27:42.075Z,40.63
2023-02-16T20:29:43.632Z,39.10
2023-02-16T20:31:52.491Z,42.00
2023-02-16T20:33:54.369Z,41.72
2023-02-16T20:35:55.865Z,40.63
2023-02-16T20:37:57.325Z,42.45
2023-02-16T20:39:59.008Z,41.13
2023-02-16T20:42:00.504Z,41.92
2023-02-16T20:44:02.898Z,42.38
2023-02-16T20:46:06.519Z,41.22
2023-02-16T20:48:09.513Z,42.25
2023-02-16T20:50:11.247Z,40.55
2023-02-16T20:52:12.757Z,42.72
2023-02-16T20:54:14.351Z,43.92
2023-02-16T20:56:24.161Z,42.17
2023-02-16T20:58:25.612Z,41.83
2023-02-16T21:00:27.461Z,43.55
2023-02-16T21:02:28.974Z,43.03
2023-02-16T21:04:30.646Z,41.33
2023-02-16T21:06:32.517Z,41.58
2023-02-16T21:08:34.081Z,41.80
2023-02-16T21:10:35.666Z,42.25
2023-02-16T21:12:37.151Z,42.55
2023-02-16T21:14:38.708Z,41.60
2023-02-16T21:16:41.084Z,39.67
2023-02-16T21:18:43.274Z,40.35
2023-02-16T21:20:45.057Z,40.08
2023-02-16T21:22:46.643Z,39.75
2023-02-16T21:24:48.136Z,40.78
2023-02-16T21:26:49.731Z,40.20
2023-02-16T21:28:52.148Z,41.08
2023-02-16T21:30:54.217Z,41.03
2023-02-16T21:32:56.039Z,40.10
2023-02-16T21:34:57.562Z,40.28
2023-02-16T21:36:59.058Z,38.47
2023-02-16T21:39:02.837Z,40.35
2023-02-16T21:41:25.976Z,39.95
2023-02-16T21:43:27.566Z,39.97
2023-02-16T21:45:29.227Z,38.83
2023-02-16T21:47:49.437Z,40.30
2023-02-16T21:49:50.907Z,39.10
2023-02-16T21:51:52.548Z,39.20
2023-02-16T21:53:54.491Z,38.72
2023-02-16T21:56:14.791Z,38.13
2023-02-16T21:58:16.598Z,36.80
2023-02-16T22:00:18.108Z,39.53
2023-02-16T22:02:19.574Z,39.03
2023-02-16T22:04:22.711Z,37.42
2023-02-16T22:06:34.524Z,36.92
2023-02-16T22:08:38.078Z,38.13
2023-02-16T22:10:39.630Z,38.22
2023-02-16T22:12:41.095Z,39.22
2023-02-16T22:14:42.572Z,38.78
2023-02-16T22:16:46.393Z,36.97
2023-02-16T22:18:48.973Z,37.42
2023-02-16T22:20:50.470Z,37.63
2023-02-16T22:22:53.486Z,36.83
2023-02-16T22:24:54.943Z,39.10
2023-02-16T22:26:56.394Z,38.08
2023-02-16T22:28:58.624Z,38.10
2023-02-16T22:31:07.218Z,38.00
2023-02-16T22:33:08.801Z,37.78
2023-02-16T22:35:10.286Z,38.15
2023-02-16T22:37:11.764Z,36.95
2023-02-16T22:39:14.234Z,37.47
2023-02-16T22:41:15.732Z,36.67
2023-02-16T22:43:17.204Z,36.80
2023-02-16T22:45:18.687Z,36.42
2023-02-16T22:47:20.164Z,36.45
2023-02-16T22:49:21.705Z,35.35
2023-02-16T22:51:23.234Z,35.55
2023-02-16T22:53:26.921Z,35.78
2023-02-16T22:55:28.512Z,34.90
2023-02-16T22:57:30.048Z,35.30
2023-02-16T22:59:31.517Z,33.95
2023-02-16T23:01:33.355Z,33.63
2023-02-16T23:03:34.795Z,33.80
2023-02-16T23:05:36.272Z,31.67
2023-02-16T23:07:37.838Z,31.90
2023-02-16T23:09:39.297Z,31.30
2023-02-16T23:11:40.892Z,30.85
2023-02-16T23:13:42.360Z,30.92
2023-02-16T23:15:43.832Z,29.50
2023-02-16T23:17:45.278Z,29.05
2023-02-16T23:19:50.287Z,28.85
2023-02-16T23:21:53.672Z,30.02
2023-02-16T23:23:55.951Z,28.98
2023-02-16T23:25:57.459Z,28.80
2023-02-16T23:27:59.900Z,28.10
2023-02-16T23:30:01.513Z,28.88
2023-02-16T23:32:05.512Z,28.27
2023-02-16T23:34:08.019Z,27.85
2023-02-16T23:36:10.019Z,26.25
2023-02-16T23:38:14.368Z,27.20
2023-02-16T23:40:15.848Z,25.98
2023-02-16T23:42:17.308Z,25.20
2023-02-16T23:44:18.778Z,25.27
2023-02-16T23:46:20.289Z,24.75
2023-02-16T23:48:23.095Z,24.83
2023-02-16T23:50:26.088Z,24.30
2023-02-16T23:52:27.558Z,23.33
2023-02-16T23:54:29.123Z,23.85
2023-02-16T23:56:30.672Z,22.60
2023-02-16T23:58:42.630Z,22.75
